Weldon Spring Heights, Missouri
Current Conditions -  °F | °C
As of 10:54 AM on Monday 22 Dec 2014 (Local Time) from KSUS Reporting Station
Haze Haze  
Wind Chill: 42°   Ceiling: 900
Heat Index: 44°   Visibility: 6mi
Dew Point: 42°   Wind: 5mph
Humidity: 93%   Direction: NA
Pressure: 29.68"   Gusts: NA
Location:  38.7167°N, 90.6411°W
Report Text: KSUS 221654Z VRB04KT 6SM BR OVC009 07/06 A2968 RMK AO2 RAE53 CIG 006V012 SLP054 P0001 T00670056
Loading
Personal Weather Stations






























Interactive Weather Map New forecast layout! Learn more

10-Day Weather Forecast

Advertisements
Track Severe Weather on mobile